Time;durP1;ratioP1;P1;durP2;ratioP2;P2;SDS_P1;SDS_P2;PMS_P1;PMS_P2;Temp;Humidity;BMP_temperature;BMP_pressure;BME280_temperature;BME280_humidity;BME280_pressure;Samples;Min_cycle;Max_cycle;Signal;HPM_P1;HPM_P2
2022/09/19 00:01:32;;;;;;;2.13;1.92;;;;;;;8.92;75.22;96898.66;5047614;28;21310;-63
2022/09/19 00:04:09;;;;;;;6.90;2.10;;;;;;;9.13;77.19;96903.81;5047772;28;20078;-64
2022/09/19 00:06:37;;;;;;;2.60;1.77;;;;;;;8.97;77.60;96884.56;5047631;28;20057;-64
2022/09/19 00:09:06;;;;;;;2.25;1.80;;;;;;;8.43;77.34;96816.72;5047721;28;20055;-63
2022/09/19 00:11:33;;;;;;;2.75;1.80;;;;;;;8.32;74.47;96763.25;5047152;28;20144;-63
2022/09/19 00:14:00;;;;;;;3.33;1.50;;;;;;;8.86;75.85;96871.69;5047516;28;20080;-63
2022/09/19 00:16:30;;;;;;;3.72;2.00;;;;;;;9.17;76.48;96912.97;5045908;28;20049;-65
2022/09/19 00:18:59;;;;;;;1.77;1.67;;;;;;;9.11;76.88;96911.66;5046199;28;20143;-65
2022/09/19 00:21:29;;;;;;;1.65;1.55;;;;;;;9.01;76.73;96909.47;5045936;28;20087;-65
2022/09/19 00:26:42;;;;;;;4.25;1.80;;;;;;;8.23;77.08;96812.34;5047109;28;20140;-63
2022/09/19 00:29:09;;;;;;;3.65;1.65;;;;;;;8.75;78.08;96923.13;5047414;28;20142;-63
2022/09/19 00:31:36;;;;;;;4.13;1.92;;;;;;;8.73;80.32;96917.16;5047242;28;20068;-62
2022/09/19 00:34:06;;;;;;;2.10;1.92;;;;;;;8.75;78.68;96906.56;5047353;28;20087;-63
2022/09/19 00:36:34;;;;;;;2.00;1.80;;;;;;;8.68;79.17;96909.97;5047213;28;20143;-66
2022/09/19 00:39:00;;;;;;;3.78;1.77;;;;;;;8.19;78.58;96847.31;5047199;28;20138;-63
2022/09/19 00:41:27;;;;;;;2.75;1.73;;;;;;;8.72;77.35;96915.56;5046807;28;20049;-64
2022/09/19 00:43:57;;;;;;;4.10;2.08;;;;;;;8.69;76.85;96921.81;5047005;28;20148;-62
2022/09/19 00:46:29;;;;;;;2.17;1.70;;;;;;;8.67;80.38;96913.09;5046913;28;20137;-65
2022/09/19 00:49:07;;;;;;;1.67;1.53;;;;;;;8.41;77.22;96888.06;5045879;28;20148;-63
2022/09/19 00:51:37;;;;;;;3.95;2.08;;;;;;;7.64;84.03;96909.00;5046423;28;20138;-64
2022/09/19 00:54:11;;;;;;;2.53;2.08;;;;;;;7.57;85.89;96931.66;5046590;28;20045;-63
2022/09/19 00:56:47;;;;;;;3.15;2.30;;;;;;;7.83;86.19;96927.59;5046127;28;20593;-66
2022/09/19 00:59:14;;;;;;;3.55;2.63;;;;;;;7.41;85.08;96867.44;5046825;28;20096;-62
2022/09/19 01:01:42;;;;;;;4.20;2.30;;;;;;;7.81;87.22;96910.63;5046274;28;20163;-62
2022/09/19 01:04:14;;;;;;;3.60;2.08;;;;;;;7.97;84.76;96933.44;5046666;28;20084;-62
2022/09/19 01:07:03;;;;;;;3.38;1.90;;;;;;;7.86;83.81;96902.84;5046044;28;20131;-62
2022/09/19 01:09:55;;;;;;;2.42;1.80;;;;;;;8.09;82.76;96930.63;5046247;28;20109;-65
2022/09/19 01:12:26;;;;;;;1.42;1.30;;;;;;;8.02;82.91;96938.69;5044641;28;20141;-63
2022/09/19 01:15:09;;;;;;;7.78;2.85;;;;;;;6.74;89.63;96941.88;5044856;28;20527;-65
2022/09/19 01:17:46;;;;;;;15.37;3.53;;;;;;;6.07;93.11;96922.47;5044799;28;20056;-63
2022/09/19 01:20:12;;;;;;;8.07;2.58;;;;;;;6.25;94.90;96932.09;5046323;28;20060;-64
2022/09/19 01:22:54;;;;;;;19.55;5.05;;;;;;;6.16;94.59;96945.19;5044967;28;20076;-62
2022/09/19 01:25:32;;;;;;;7.90;3.30;;;;;;;6.40;95.35;96941.59;5046161;28;20107;-62
2022/09/19 01:28:08;;;;;;;4.47;2.90;;;;;;;6.61;96.11;96943.06;5044933;28;20636;-63
2022/09/19 01:30:46;;;;;;;10.88;3.30;;;;;;;6.38;94.98;96928.22;5045580;28;20575;-64
2022/09/19 01:33:18;;;;;;;6.35;3.13;;;;;;;6.25;96.37;96879.84;5051165;28;20110;-63
2022/09/19 01:35:51;;;;;;;5.60;3.22;;;;;;;6.72;97.37;96922.16;5044310;28;20098;-63
2022/09/19 01:38:24;;;;;;;7.55;2.42;;;;;;;6.90;95.40;96940.00;5046218;28;20506;-62
2022/09/19 01:40:53;;;;;;;2.47;1.73;;;;;;;6.69;95.17;96862.31;5045773;28;20502;-63
2022/09/19 01:43:20;;;;;;;3.72;1.92;;;;;;;7.06;92.04;96931.81;5044738;28;20111;-63
2022/09/19 01:45:49;;;;;;;5.50;2.20;;;;;;;7.10;90.93;96933.50;5045738;28;20063;-62
2022/09/19 01:48:42;;;;;;;7.07;2.40;;;;;;;7.08;90.84;96916.53;5046131;28;20496;-63
2022/09/19 01:51:31;;;;;;;4.13;2.00;;;;;;;6.93;89.68;96887.00;5045556;28;20132;-64
2022/09/19 01:54:11;;;;;;;4.28;1.70;;;;;;;7.32;89.09;96949.47;5045965;28;20060;-64
2022/09/19 01:57:13;;;;;;;1.65;1.55;;;;;;;7.31;89.16;96949.81;5043951;28;20091;-65
2022/09/19 01:59:47;;;;;;;2.28;1.50;;;;;;;7.28;87.52;96956.84;5045650;28;20168;-62
2022/09/19 02:02:34;;;;;;;1.75;1.35;;;;;;;7.17;86.42;96955.75;5045347;28;20601;-63
2022/09/19 02:05:41;;;;;;;2.17;1.85;;;;;;;7.20;86.36;96948.72;5040449;28;20135;-63
2022/09/19 02:08:11;;;;;;;7.57;2.50;;;;;;;6.82;88.19;96951.16;5043602;28;20136;-63
2022/09/19 02:10:46;;;;;;;8.48;2.40;;;;;;;6.20;92.78;96893.06;5045427;28;20123;-62
2022/09/19 02:13:15;;;;;;;4.93;2.13;;;;;;;6.77;91.93;96952.19;5043426;28;20057;-66
2022/09/19 02:15:50;;;;;;;4.05;1.30;;;;;;;6.21;90.42;96867.97;5044948;28;20128;-63
2022/09/19 02:18:26;;;;;;;1.20;1.10;;;;;;;6.42;91.14;96900.81;5045352;28;20126;-62
2022/09/19 02:21:07;;;;;;;4.72;1.25;;;;;;;6.54;90.67;96889.75;5043579;28;20139;-64
2022/09/19 02:23:45;;;;;;;2.75;1.27;;;;;;;6.97;89.66;96945.72;5043597;28;20119;-64
2022/09/19 02:26:11;;;;;;;2.55;1.17;;;;;;;6.96;88.31;96944.13;5045126;28;20083;-62
2022/09/19 02:28:42;;;;;;;4.95;2.00;;;;;;;6.88;87.84;96942.31;5043689;28;20131;-65
2022/09/19 02:31:11;;;;;;;3.67;1.40;;;;;;;6.94;89.01;96946.41;5045063;28;20055;-63
2022/09/19 02:33:42;;;;;;;2.45;2.13;;;;;;;6.96;86.08;96948.81;5045139;28;20067;-62
2022/09/19 02:36:16;;;;;;;8.02;4.90;;;;;;;6.94;84.66;96946.41;5044805;28;20160;-62
2022/09/19 02:38:56;;;;;;;6.40;5.03;;;;;;;6.88;85.44;96947.81;5045074;28;20080;-62
2022/09/19 02:41:23;;;;;;;6.55;3.70;;;;;;;6.83;85.09;96956.31;5044708;28;20540;-63
2022/09/19 02:44:00;;;;;;;8.88;6.07;;;;;;;6.82;84.63;96960.22;5043175;28;20096;-63
2022/09/19 02:46:33;;;;;;;7.47;3.80;;;;;;;6.47;88.74;96964.63;5044796;28;20080;-63
2022/09/19 02:49:12;;;;;;;13.32;6.15;;;;;;;6.28;90.11;96923.16;5044853;28;20053;-64
2022/09/19 02:51:50;;;;;;;8.73;4.38;;;;;;;6.44;90.07;96926.00;5044810;28;20505;-63
2022/09/19 02:54:23;;;;;;;7.28;5.22;;;;;;;6.47;88.84;96898.59;5043489;28;20111;-63
2022/09/19 02:56:52;;;;;;;7.05;4.85;;;;;;;6.80;88.28;96951.50;5044168;28;20513;-63
2022/09/19 02:59:28;;;;;;;7.40;4.90;;;;;;;6.89;89.95;96949.41;5043107;28;20139;-63
2022/09/19 03:02:03;;;;;;;7.43;5.18;;;;;;;6.98;90.81;96947.31;5044304;28;20064;-64
2022/09/19 03:04:39;;;;;;;5.57;3.90;;;;;;;7.12;89.20;96942.22;5044743;28;20502;-64
2022/09/19 03:07:27;;;;;;;4.00;2.55;;;;;;;6.65;86.41;96866.94;5044208;28;20063;-63
2022/09/19 03:10:08;;;;;;;6.18;2.13;;;;;;;6.70;85.17;96885.91;5044932;28;20057;-64
2022/09/19 03:12:48;;;;;;;4.55;2.40;;;;;;;4.65;84.42;96585.97;5044644;28;20144;-63
2022/09/19 03:15:16;;;;;;;7.05;2.88;;;;;;;6.97;84.95;96953.97;5042931;28;20128;-63
2022/09/19 03:17:49;;;;;;;3.80;2.35;;;;;;;7.04;84.60;96967.94;5042714;28;20049;-64
2022/09/19 03:20:18;;;;;;;2.53;1.70;;;;;;;6.94;84.90;96968.44;5044104;28;20132;-64
2022/09/19 03:22:45;;;;;;;1.77;1.10;;;;;;;6.87;86.22;96971.00;5044187;28;20322;-65
2022/09/19 03:25:14;;;;;;;5.50;1.35;;;;;;;6.88;87.77;96971.78;5046339;28;20088;-62
2022/09/19 03:27:41;;;;;;;2.60;1.10;;;;;;;6.63;87.05;96962.78;5048439;28;20139;-63
2022/09/19 03:30:10;;;;;;;2.47;1.10;;;;;;;6.81;85.23;96974.34;5048114;28;20140;-63
2022/09/19 03:32:41;;;;;;;2.15;1.10;;;;;;;6.31;84.78;96922.47;5046871;28;20495;-63
2022/09/19 03:35:10;;;;;;;4.45;1.13;;;;;;;6.59;86.13;96978.38;5048299;28;20052;-64
2022/09/19 03:37:36;;;;;;;2.28;1.00;;;;;;;6.64;85.80;96980.88;5046643;28;20065;-64
2022/09/19 03:40:03;;;;;;;1.67;0.95;;;;;;;6.73;86.34;96978.81;5048228;28;20127;-62
2022/09/19 03:42:37;;;;;;;1.23;0.90;;;;;;;6.70;86.53;96974.00;5048134;28;20049;-63
2022/09/19 03:45:06;;;;;;;1.05;0.95;;;;;;;6.56;85.84;96951.53;5048233;28;20139;-63
2022/09/19 03:47:33;;;;;;;3.22;1.13;;;;;;;6.08;86.43;96886.41;5047994;28;20045;-63
2022/09/19 03:50:00;;;;;;;1.50;1.15;;;;;;;6.63;87.09;96978.47;5048138;28;20887;-63
2022/09/19 03:52:27;;;;;;;1.45;0.93;;;;;;;6.34;86.77;96927.28;5046214;28;20105;-65
2022/09/19 03:54:54;;;;;;;1.38;1.10;;;;;;;6.55;85.60;96971.97;5048146;28;20049;-65
2022/09/19 03:57:21;;;;;;;3.55;1.65;;;;;;;6.56;85.71;96970.03;5046089;28;20142;-63
2022/09/19 03:59:47;;;;;;;2.28;0.88;;;;;;;6.56;86.93;96973.56;5047713;28;20530;-62
2022/09/19 04:02:14;;;;;;;3.33;1.00;;;;;;;6.19;87.44;96917.00;5047608;28;20131;-64
2022/09/19 04:04:41;;;;;;;2.08;1.23;;;;;;;6.55;88.08;96974.72;5046380;28;20547;-63
2022/09/19 04:07:08;;;;;;;1.27;0.90;;;;;;;6.45;86.84;96982.66;5046581;28;20114;-64
2022/09/19 04:09:34;;;;;;;1.40;0.90;;;;;;;6.43;87.43;96984.94;5047221;28;20136;-64
2022/09/19 04:12:03;;;;;;;1.10;0.95;;;;;;;6.49;86.86;96984.34;5046395;28;20136;-63
2022/09/19 04:14:34;;;;;;;2.00;0.98;;;;;;;6.24;86.83;96949.75;5047479;28;20061;-66
2022/09/19 04:17:00;;;;;;;3.97;1.00;;;;;;;6.12;88.28;96952.50;5047289;28;20075;-63
2022/09/19 04:19:48;;;;;;;1.92;1.30;;;;;;;6.24;88.25;96960.78;5047228;28;20053;-63
2022/09/19 04:22:16;;;;;;;1.50;1.00;;;;;;;5.94;87.66;96946.41;5045858;28;20139;-63
2022/09/19 04:24:43;;;;;;;1.02;0.93;;;;;;;6.45;87.14;96994.44;5047083;28;20084;-63
2022/09/19 04:27:13;;;;;;;4.72;1.13;;;;;;;6.55;85.36;96993.97;5047213;28;20045;-63
2022/09/19 04:29:45;;;;;;;1.45;0.90;;;;;;;6.11;85.20;96937.16;5045861;28;20053;-62
2022/09/19 04:32:14;;;;;;;1.98;1.00;;;;;;;6.50;86.95;96999.72;5047317;28;20061;-65
2022/09/19 04:34:43;;;;;;;4.30;1.20;;;;;;;6.01;86.79;96940.34;5046787;28;20095;-63
2022/09/19 04:37:10;;;;;;;4.63;1.00;;;;;;;6.57;87.86;96991.69;5046732;28;20067;-65
2022/09/19 04:39:37;;;;;;;2.55;1.13;;;;;;;6.60;87.42;96985.50;5045409;28;20119;-66
2022/09/19 04:42:04;;;;;;;3.15;1.20;;;;;;;6.69;85.37;96988.91;5045783;28;20049;-65
2022/09/19 04:44:31;;;;;;;3.75;1.00;;;;;;;6.67;84.69;96991.19;5046718;28;20131;-65
2022/09/19 04:46:58;;;;;;;6.25;1.35;;;;;;;6.74;83.56;96990.63;5051711;28;20053;-63
2022/09/19 04:49:34;;;;;;;3.90;1.38;;;;;;;6.85;83.68;96997.25;5026700;28;20152;-63
2022/09/19 04:52:05;;;;;;;9.13;2.20;;;;;;;6.18;82.67;96874.94;5026900;28;20057;-63
2022/09/19 04:54:36;;;;;;;4.70;2.60;;;;;;;6.61;83.46;96948.56;5025122;28;20127;-63
2022/09/19 04:57:05;;;;;;;5.07;2.30;;;;;;;6.81;83.21;96969.59;5026883;28;20049;-63
2022/09/19 04:59:33;;;;;;;2.08;1.73;;;;;;;7.08;83.29;97010.16;5025126;28;20508;-63
2022/09/19 05:02:01;;;;;;;1.95;1.30;;;;;;;6.41;83.08;96891.75;5026734;28;20045;-63
2022/09/19 05:04:28;;;;;;;3.30;1.50;;;;;;;6.26;83.40;96859.44;5025132;28;20072;-62
2022/09/19 05:06:55;;;;;;;3.15;1.40;;;;;;;7.45;83.83;96995.13;5026148;28;20127;-68
2022/09/19 05:09:22;;;;;;;2.15;1.52;;;;;;;7.64;84.00;96995.25;5026224;28;20132;-67
2022/09/19 05:11:49;;;;;;;1.67;1.35;;;;;;;7.49;81.14;96946.38;5026437;28;20060;-69
2022/09/19 05:14:17;;;;;;;3.55;1.80;;;;;;;8.04;80.32;97016.38;5026453;28;20049;-65
2022/09/19 05:16:49;;;;;;;6.07;1.90;;;;;;;8.25;79.35;97003.19;5026462;28;20060;-67
2022/09/19 05:19:17;;;;;;;6.30;2.22;;;;;;;8.44;79.22;96992.22;5026283;28;20057;-67
2022/09/19 05:21:44;;;;;;;6.28;2.45;;;;;;;8.38;78.37;96955.00;5026634;28;20081;-67
2022/09/19 05:24:11;;;;;;;5.97;3.58;;;;;;;8.91;77.04;97001.22;5026134;28;20138;-68
2022/09/19 05:26:40;;;;;;;5.57;2.60;;;;;;;9.06;77.00;96992.06;5026177;28;20085;-67
2022/09/19 05:29:07;;;;;;;3.58;2.10;;;;;;;8.80;76.64;96928.38;5024570;28;20127;-69
2022/09/19 05:31:37;;;;;;;5.40;2.05;;;;;;;8.68;74.35;96911.91;5026051;28;20054;-67
2022/09/19 05:34:04;;;;;;;3.58;1.95;;;;;;;9.45;73.63;96982.66;5026211;28;20073;-68
2022/09/19 05:36:31;;;;;;;2.13;1.73;;;;;;;9.17;73.80;96922.06;5029519;28;20114;-65
2022/09/19 05:38:57;;;;;;;2.47;1.75;;;;;;;7.73;72.64;96658.75;5043338;28;20499;-65
2022/09/19 05:41:24;;;;;;;3.13;1.60;;;;;;;10.00;70.85;96993.19;5046919;28;20107;-74
2022/09/19 05:43:51;;;;;;;2.65;1.90;;;;;;;9.86;71.04;96981.06;5061738;28;20076;-69
2022/09/19 05:46:20;;;;;;;3.67;2.00;;;;;;;10.32;68.40;96986.28;5045850;28;20061;-63
2022/09/19 05:48:48;;;;;;;3.58;1.90;;;;;;;8.39;67.49;96669.59;5043403;28;20049;-63
2022/09/19 05:51:15;;;;;;;4.28;1.60;;;;;;;9.54;68.04;96869.06;5060170;28;20518;-66
2022/09/19 05:53:55;;;;;;;3.42;1.38;;;;;;;9.96;68.41;96898.25;5053863;28;20080;-66
2022/09/19 05:56:23;;;;;;;2.40;1.70;;;;;;;10.26;67.86;96918.53;5045198;28;20088;-68
2022/09/19 05:58:53;;;;;;;5.00;1.50;;;;;;;10.47;66.10;96913.34;5045073;28;20147;-64
2022/09/19 06:01:20;;;;;;;1.98;1.50;;;;;;;11.12;65.88;96982.34;5051019;28;20191;-67
2022/09/19 06:03:48;;;;;;;2.30;1.67;;;;;;;11.23;65.29;96980.53;5025086;28;20524;-63
2022/09/19 06:06:18;;;;;;;2.38;1.50;;;;;;;11.28;66.13;96952.47;5037553;28;20064;-69
2022/09/19 06:08:47;;;;;;;3.60;1.25;;;;;;;11.19;65.31;96904.84;5043999;28;20955;-62
2022/09/19 06:11:14;;;;;;;1.67;1.40;;;;;;;11.91;64.59;96975.44;5058784;28;20091;-65
2022/09/19 06:16:26;;;;;;;3.22;1.63;;;;;;;11.13;61.91;96828.72;5064948;28;20171;-65
2022/09/19 06:18:53;;;;;;;2.03;1.85;;;;;;;12.33;62.71;96986.97;5064934;28;20052;-67
2022/09/19 06:21:20;;;;;;;2.22;1.52;;;;;;;11.22;60.75;96834.75;5053147;28;20529;-70
2022/09/19 06:23:46;;;;;;;3.15;1.58;;;;;;;11.83;57.56;96868.31;5044910;28;20075;-63
2022/09/19 06:26:13;;;;;;;3.47;1.90;;;;;;;12.42;58.24;96979.13;5044364;28;20060;-70
2022/09/19 06:28:40;;;;;;;4.90;2.15;;;;;;;12.72;60.69;96982.53;5047370;28;20444;-67
2022/09/19 06:31:08;;;;;;;4.93;1.83;;;;;;;12.99;59.97;96997.81;5052635;28;20122;-64
2022/09/19 06:33:34;;;;;;;2.55;1.33;;;;;;;13.06;59.90;96970.09;5044583;28;20098;-70
2022/09/19 06:36:02;;;;;;;5.05;2.40;;;;;;;13.23;60.23;96980.50;5044036;28;20076;-74
2022/09/19 06:38:32;;;;;;;1.95;1.70;;;;;;;11.38;59.45;96663.41;5045501;28;20132;-66
2022/09/19 06:40:59;;;;;;;2.83;2.20;;;;;;;12.44;59.48;96798.94;5033868;28;20547;-73
2022/09/19 06:43:26;;;;;;;4.40;2.40;;;;;;;13.56;57.00;96926.63;5044436;28;20098;-66
2022/09/19 06:45:53;;;;;;;3.95;1.75;;;;;;;13.97;57.94;96960.53;5044158;28;20477;-61
2022/09/19 06:48:20;;;;;;;6.55;2.97;;;;;;;12.54;56.26;96730.72;5057980;28;20556;-68
2022/09/19 06:50:48;;;;;;;2.78;1.90;;;;;;;14.37;52.82;96972.19;5060384;28;20076;-59
2022/09/19 06:53:15;;;;;;;2.47;2.10;;;;;;;14.50;53.41;96967.81;5057307;28;20099;-61
2022/09/19 06:55:42;;;;;;;2.88;2.00;;;;;;;14.39;52.88;96913.25;5043961;28;20553;-62
2022/09/19 06:58:13;;;;;;;3.05;1.98;;;;;;;14.59;52.18;96945.13;5043644;28;20463;-66
2022/09/19 07:00:42;;;;;;;2.20;1.98;;;;;;;14.42;49.77;96887.38;5042164;28;20052;-66
2022/09/19 07:03:12;;;;;;;2.20;1.95;;;;;;;15.13;46.83;96969.75;5044460;28;20053;-64
2022/09/19 07:05:42;;;;;;;4.15;2.10;;;;;;;15.36;47.48;96967.31;5043538;28;20093;-69
2022/09/19 07:08:10;;;;;;;3.47;2.20;;;;;;;15.49;46.99;96971.28;5048374;28;20181;-63
2022/09/19 07:10:37;;;;;;;2.92;2.28;;;;;;;15.30;46.36;96901.91;5052015;28;20592;-67
2022/09/19 07:13:05;;;;;;;2.22;1.92;;;;;;;15.64;45.75;96932.94;5063798;28;20141;-62
2022/09/19 07:15:34;;;;;;;2.33;2.17;;;;;;;15.81;45.41;96932.84;5047698;28;20053;-62
2022/09/19 07:18:02;;;;;;;2.28;1.98;;;;;;;15.80;46.21;96928.47;5059390;28;20514;-61
2022/09/19 07:20:29;;;;;;;5.35;3.05;;;;;;;16.27;46.77;96955.72;5063839;28;20044;-58
2022/09/19 07:23:03;;;;;;;3.30;2.38;;;;;;;16.23;44.46;96921.41;5062880;28;20109;-65
2022/09/19 07:25:34;;;;;;;4.10;3.63;;;;;;;16.36;41.91;96911.31;5043053;28;20049;-66
2022/09/19 07:28:03;;;;;;;2.17;1.98;;;;;;;16.44;41.60;96946.44;5043907;28;20118;-63
2022/09/19 07:30:32;;;;;;;2.67;2.08;;;;;;;16.82;42.32;96952.91;5043245;28;20056;-67
2022/09/19 07:33:01;;;;;;;3.72;1.95;;;;;;;16.28;41.72;96912.59;5043841;28;20214;-66
2022/09/19 07:35:30;;;;;;;2.15;2.00;;;;;;;16.80;41.21;96948.97;5043880;28;20128;-64
2022/09/19 07:38:02;;;;;;;3.92;2.00;;;;;;;15.11;40.94;96659.69;5043633;28;20060;-62
2022/09/19 07:40:29;;;;;;;2.20;2.10;;;;;;;17.17;40.80;96946.19;5044244;28;20132;-66
2022/09/19 07:43:03;;;;;;;3.17;1.95;;;;;;;17.42;41.60;96952.34;5046294;28;20091;-69
2022/09/19 07:45:34;;;;;;;1.90;1.80;;;;;;;17.27;39.44;96906.91;5049076;28;20084;-61
2022/09/19 07:48:02;;;;;;;2.00;1.90;;;;;;;17.60;40.41;96936.94;5061449;28;20080;-61
2022/09/19 07:50:30;;;;;;;3.28;2.50;;;;;;;17.66;40.71;96917.66;5061946;28;20534;-61
2022/09/19 07:53:09;;;;;;;2.40;2.20;;;;;;;17.79;41.12;96938.31;5063798;28;20486;-58
2022/09/19 07:55:35;;;;;;;3.38;2.17;;;;;;;17.75;38.00;96892.72;5045011;28;20048;-73
2022/09/19 07:58:03;;;;;;;2.10;2.00;;;;;;;18.26;38.07;96934.44;5055573;28;20138;-69
2022/09/19 08:00:32;;;;;;;2.70;1.98;;;;;;;18.21;38.30;96920.88;5044099;28;20049;-67
2022/09/19 08:03:10;;;;;;;2.72;1.80;;;;;;;18.26;38.00;96926.03;5042511;28;20084;-70
2022/09/19 08:05:39;;;;;;;3.95;2.35;;;;;;;17.51;37.09;96793.00;5038589;28;20132;-66
2022/09/19 08:08:09;;;;;;;48.03;24.17;;;;;;;17.99;37.77;96858.75;5050163;28;20098;-64
2022/09/19 08:10:42;;;;;;;2.33;2.13;;;;;;;17.41;37.75;96805.13;5059374;28;20136;-74
2022/09/19 08:13:15;;;;;;;4.55;3.83;;;;;;;17.32;36.45;96785.25;5048032;28;20076;-66
2022/09/19 08:15:43;;;;;;;4.90;3.40;;;;;;;18.37;35.92;96907.03;5046817;28;20136;-57
2022/09/19 08:18:13;;;;;;;2.13;2.00;;;;;;;18.00;35.90;96916.38;5042748;28;20092;-65
2022/09/19 08:20:41;;;;;;;4.93;3.92;;;;;;;18.35;35.30;96903.88;5041571;28;20103;-63
2022/09/19 08:23:13;;;;;;;2.20;2.10;;;;;;;18.19;34.41;96861.66;5047087;28;20137;-66
2022/09/19 08:25:46;;;;;;;1.70;1.65;;;;;;;17.32;34.56;96819.66;5046974;28;20178;-65
2022/09/19 08:28:16;;;;;;;2.30;2.10;;;;;;;18.44;34.72;96878.91;5047130;28;20057;-66
2022/09/19 08:30:43;;;;;;;1.98;1.88;;;;;;;18.51;35.60;96850.72;5045553;28;20854;-58
2022/09/19 08:33:11;;;;;;;2.22;2.13;;;;;;;18.71;35.39;96853.59;5046960;28;20091;-66
2022/09/19 08:35:39;;;;;;;1.70;1.60;;;;;;;18.43;32.85;96804.38;5046262;28;20409;-58
2022/09/19 08:38:08;;;;;;;2.22;2.03;;;;;;;18.29;33.00;96837.47;5047064;28;20060;-71
2022/09/19 08:40:43;;;;;;;2.08;1.98;;;;;;;18.31;33.72;96879.88;5046242;28;20052;-66
2022/09/19 08:44:08;;;;;;;2.17;2.08;;;;;;;18.41;33.80;96868.53;5045903;28;20136;-63
2022/09/19 08:46:46;;;;;;;2.22;2.05;;;;;;;18.82;34.32;96860.59;5042612;28;20138;-61
2022/09/19 08:49:22;;;;;;;1.92;1.83;;;;;;;18.78;32.60;96862.66;5041970;28;20130;-67
2022/09/19 08:51:52;;;;;;;2.25;2.15;;;;;;;18.70;34.13;96863.25;5038767;28;20053;-65
2022/09/19 08:54:27;;;;;;;2.42;2.33;;;;;;;18.95;33.89;96830.66;5050540;28;20138;-61
2022/09/19 08:56:54;;;;;;;2.00;1.90;;;;;;;19.51;33.32;96856.84;5059269;28;20437;-61
2022/09/19 08:59:24;;;;;;;2.03;1.92;;;;;;;19.76;33.44;96857.13;5063071;28;20053;-66
2022/09/19 09:01:59;;;;;;;2.17;2.08;;;;;;;19.91;33.35;96846.34;5061087;28;20139;-66
2022/09/19 09:04:45;;;;;;;2.45;2.35;;;;;;;19.34;32.91;96763.31;5045809;28;20506;-62
2022/09/19 09:07:30;;;;;;;2.65;2.53;;;;;;;20.11;32.55;96844.25;5045698;28;20116;-61
2022/09/19 09:10:15;;;;;;;3.40;3.10;;;;;;;19.83;32.19;96834.47;5046051;28;20045;-59
2022/09/19 09:12:58;;;;;;;2.50;2.40;;;;;;;20.05;31.99;96835.56;5047199;28;20048;-60
2022/09/19 09:16:00;;;;;;;3.20;2.97;;;;;;;19.44;32.95;96840.16;5060975;28;20079;-60
2022/09/19 09:18:57;;;;;;;2.08;1.98;;;;;;;19.74;32.88;96831.47;5045978;28;20629;-66
2022/09/19 09:21:48;;;;;;;2.80;2.60;;;;;;;19.95;33.43;96830.22;5027414;28;20053;-60
2022/09/19 09:24:51;;;;;;;3.40;2.85;;;;;;;19.53;32.52;96827.13;5036636;28;20067;-66
2022/09/19 09:27:30;;;;;;;2.95;2.75;;;;;;;19.85;33.44;96805.94;5043689;28;20609;-69
2022/09/19 09:30:04;;;;;;;2.63;2.42;;;;;;;20.20;33.91;96803.09;5042072;28;20057;-73
2022/09/19 09:32:35;;;;;;;2.05;1.95;;;;;;;19.30;32.56;96739.34;5030357;28;20122;-67
2022/09/19 09:35:12;;;;;;;2.15;2.05;;;;;;;19.54;33.59;96730.34;5041105;28;20161;-67
2022/09/19 09:37:41;;;;;;;2.60;2.45;;;;;;;20.21;33.29;96764.50;5044530;28;20061;-67
2022/09/19 09:41:44;;;;;;;2.40;2.20;;;;;;;20.39;32.19;96804.25;5044348;28;20490;-67
2022/09/19 09:43:06;;;;;;;2.38;2.28;;;;;;;20.64;33.27;96795.94;5044872;28;20448;-66
2022/09/19 09:45:51;;;;;;;2.42;2.22;;;;;;;20.41;32.19;96762.38;5059801;28;20114;-66
2022/09/19 09:48:34;;;;;;;2.42;2.33;;;;;;;20.60;32.55;96781.16;5043509;28;20076;-67
2022/09/19 09:51:25;;;;;;;2.67;2.58;;;;;;;20.53;32.04;96747.59;5044446;28;20052;-67
2022/09/19 09:54:06;;;;;;;3.00;2.70;;;;;;;20.66;32.95;96770.97;5043541;28;20460;-67
2022/09/19 09:56:49;;;;;;;2.58;2.47;;;;;;;18.77;32.21;96417.69;5045003;28;20095;-64
2022/09/19 10:05:16;;;;;;;2.25;2.15;;;;;;;20.69;32.76;96784.94;5051379;28;20396;-66
2022/09/19 10:07:59;;;;;;;3.67;3.38;;;;;;;20.57;32.38;96782.84;5025927;28;20061;-67
2022/09/19 10:10:29;;;;;;;3.47;3.15;;;;;;;20.03;33.43;96736.00;5040676;28;20045;-72
2022/09/19 10:13:08;;;;;;;4.53;3.50;;;;;;;20.46;33.23;96787.16;5044587;28;20107;-70
2022/09/19 10:15:39;;;;;;;2.90;2.70;;;;;;;20.14;33.43;96700.00;5048448;28;20120;-68
2022/09/19 10:18:09;;;;;;;3.53;3.22;;;;;;;19.49;32.86;96607.22;5044961;28;20049;-63
2022/09/19 10:20:49;;;;;;;3.58;3.28;;;;;;;20.95;33.02;96752.03;5045220;28;20064;-65
2022/09/19 10:23:23;;;;;;;3.45;3.20;;;;;;;20.35;32.63;96682.53;5042997;28;20099;-75
2022/09/19 10:25:52;;;;;;;2.53;2.42;;;;;;;20.27;31.88;96715.72;5044079;28;20052;-65
2022/09/19 10:28:30;;;;;;;2.80;2.60;;;;;;;20.13;32.53;96723.69;5044015;28;20084;-70
2022/09/19 10:31:00;;;;;;;2.90;2.70;;;;;;;20.66;31.00;96774.56;5046183;28;20052;-69
2022/09/19 10:33:38;;;;;;;3.08;2.80;;;;;;;20.58;31.49;96668.25;5061156;28;20507;-66
2022/09/19 10:36:35;;;;;;;4.57;2.72;;;;;;;21.33;31.66;96757.81;5044072;28;20439;-73
2022/09/19 10:39:13;;;;;;;2.50;2.40;;;;;;;20.95;31.52;96752.84;5043582;28;20053;-75
2022/09/19 10:41:42;;;;;;;4.95;2.95;;;;;;;20.44;32.09;96710.84;5044380;28;20087;-67
2022/09/19 10:44:22;;;;;;;4.43;3.50;;;;;;;20.17;32.75;96696.31;5044539;28;20076;-74
2022/09/19 10:47:04;;;;;;;9.80;4.93;;;;;;;21.12;30.90;96742.31;5046454;28;20056;-67
2022/09/19 10:49:52;;;;;;;2.63;2.53;;;;;;;21.19;31.31;96749.78;5042940;28;20084;-66
2022/09/19 10:52:22;;;;;;;3.05;2.85;;;;;;;19.99;31.37;96611.56;5050196;28;20129;-74
2022/09/19 10:55:16;;;;;;;8.43;5.13;;;;;;;20.13;31.29;96538.06;5056118;28;20049;-68
2022/09/19 10:57:48;;;;;;;12.40;3.55;;;;;;;20.65;30.00;96558.25;5042282;28;20127;-73
2022/09/19 11:00:25;;;;;;;3.33;2.70;;;;;;;21.23;29.62;96731.53;5043950;28;20787;-69
2022/09/19 11:03:05;;;;;;;4.00;3.70;;;;;;;21.56;30.09;96723.69;5044251;28;20089;-68
2022/09/19 11:05:35;;;;;;;7.30;5.20;;;;;;;21.95;29.35;96728.91;5039209;28;20085;-70
2022/09/19 11:08:03;;;;;;;6.32;3.78;;;;;;;21.67;29.48;96626.25;5033792;28;20088;-69
2022/09/19 11:10:37;;;;;;;3.22;2.83;;;;;;;22.15;28.79;96651.22;5043798;28;20057;-71
2022/09/19 11:13:14;;;;;;;2.80;2.60;;;;;;;22.60;28.47;96709.38;5028986;28;20052;-62
2022/09/19 11:15:49;;;;;;;3.58;3.35;;;;;;;22.54;28.40;96714.03;5032927;28;20140;-73
2022/09/19 11:18:37;;;;;;;2.92;2.83;;;;;;;22.31;28.27;96724.44;5053335;28;20052;-69
2022/09/19 11:21:32;;;;;;;2.65;2.55;;;;;;;20.11;28.38;96394.28;5051876;28;20090;-74
2022/09/19 11:24:16;;;;;;;2.95;2.83;;;;;;;22.29;28.10;96712.03;5062512;28;20139;-73
2022/09/19 11:27:06;;;;;;;2.92;2.55;;;;;;;22.37;28.22;96716.97;5050615;28;20080;-72
2022/09/19 11:30:11;;;;;;;2.97;2.80;;;;;;;22.26;29.04;96719.38;5045339;28;20071;-64
2022/09/19 11:32:44;;;;;;;3.38;3.17;;;;;;;22.37;28.33;96714.16;5035570;28;20056;-72
2022/09/19 11:35:42;;;;;;;2.72;2.60;;;;;;;21.38;28.56;96521.34;5041016;28;20049;-68
2022/09/19 11:38:28;;;;;;;3.22;3.05;;;;;;;22.64;29.16;96707.19;5042573;28;20044;-73
2022/09/19 11:41:27;;;;;;;2.95;2.80;;;;;;;22.43;28.80;96698.22;5042274;28;20056;-63
2022/09/19 11:44:26;;;;;;;3.40;3.20;;;;;;;22.08;28.16;96619.66;5038506;28;20077;-69
2022/09/19 11:47:12;;;;;;;2.97;2.85;;;;;;;22.71;28.33;96678.72;5035645;28;20053;-73
2022/09/19 11:49:57;;;;;;;3.83;3.63;;;;;;;22.82;28.49;96671.44;5047278;28;20088;-73
2022/09/19 11:52:34;;;;;;;3.45;3.25;;;;;;;21.11;26.95;96405.56;5046406;28;20332;-75
2022/09/19 11:55:10;;;;;;;3.17;3.05;;;;;;;22.72;28.24;96657.69;5043108;28;20049;-72
2022/09/19 11:57:41;;;;;;;3.42;2.95;;;;;;;19.87;28.76;96152.06;5028885;28;20593;-73
2022/09/19 12:00:12;;;;;;;3.40;3.28;;;;;;;23.39;28.35;96661.59;5047151;28;20059;-69
2022/09/19 12:02:46;;;;;;;2.85;2.72;;;;;;;23.58;27.40;96663.28;5047275;28;20574;-76
2022/09/19 12:05:39;;;;;;;3.33;3.00;;;;;;;21.68;27.05;96354.38;5043575;28;20068;-73
2022/09/19 12:08:33;;;;;;;3.38;3.17;;;;;;;23.63;27.40;96628.72;5030129;28;20161;-68
2022/09/19 12:11:08;;;;;;;3.65;3.42;;;;;;;23.94;28.05;96652.06;5048225;28;20113;-62
2022/09/19 12:13:47;;;;;;;3.45;3.25;;;;;;;23.91;27.26;96644.53;5047303;28;20060;-73
2022/09/19 12:16:35;;;;;;;3.60;3.40;;;;;;;23.84;27.82;96602.38;5067526;28;20060;-73
2022/09/19 12:19:10;;;;;;;3.80;3.60;;;;;;;23.97;27.48;96651.16;5056656;28;20053;-69